Nearby METAR Reports

 

KOXC - Oxford/Waterbury, Connecticut, USA
Distance from station: SE 8mi, 12km
Updated: Thu, 20-Jul-2017 7:50am EDT
Mostly cloudy
Mostly cloudy
 Wind from calm
Wind: Calm
Temperature: 73°F , 23°C
Dew Point: 64°F , 18°C
Humidity: 74%
Barometer: 30.03 inHg , 1016.9 hPa
Clouds: Mostly cloudy
Visibility: 10 miles , 16 km
Cloud details: Mostly cloudy 25000 ft
2017/07/20 11:50 KOXC 201150Z 00000KT 10SM BKN250 23/18 A3003
KDXR - Danbury, Connecticut, USA
Distance from station: SW 19mi, 30km
Updated: Thu, 20-Jul-2017 7:53am EDT
Clear
Clear
 Wind from calm
Wind: Calm
Temperature: 73°F , 23°C
Dew Point: 66°F , 19°C
Humidity: 78%
Barometer: 30.02 inHg , 1016.6 hPa
Clouds: Clear
Visibility: 10 miles , 16 km
2017/07/20 11:53 KDXR 201153Z 00000KT 10SM CLR 23/19 A3002 RMK AO2 SLP161 T02330189 10233 20183 53007
 
KMMK - Meriden, Connecticut, USA
Distance from station: E 20mi, 33km
Updated: Thu, 20-Jul-2017 7:53am EDT
Clear
Clear
 Wind from calm
Wind: Calm
Temperature: 73°F , 23°C
Dew Point: 68°F , 20°C
Humidity: 83%
Barometer: 29.99 inHg , 1015.6 hPa
Clouds: Clear
Visibility: 10 miles , 16 km
2017/07/20 11:53 KMMK 201153Z AUTO 00000KT 10SM CLR 23/20 A2999 RMK AO2 SLP154 T02330200 10233 20183 53008 TSNO
KBDR - Bridgeport, Connecticut, USA
Distance from station: S 27mi, 44km
Updated: Thu, 20-Jul-2017 7:52am EDT
Clear
Clear
 Wind from calm
Wind: Calm
Temperature: 79°F , 26°C
Dew Point: 68°F , 20°C
Humidity: 70%
Barometer: 29.98 inHg , 1015.2 hPa
Clouds: Clear
Visibility: 10 miles , 16 km
2017/07/20 11:52 KBDR 201152Z 00000KT 10SM CLR 26/20 A2998 RMK AO2 SLP152 T02610200 10261 20228 53006
 
KHVN - New Haven/Tweed, Connecticut, USA
Distance from station: SE 27mi, 44km
Updated: Thu, 20-Jul-2017 7:53am EDT
Partly cloudy
Partly cloudy
 Wind from calm
Wind: Calm
Temperature: 79°F , 26°C
Dew Point: 66°F , 19°C
Humidity: 65%
Barometer: 29.98 inHg , 1015.2 hPa
Clouds: Partly cloudy
Visibility: 10 miles , 16 km
Cloud details: Few Clouds 14000 ft
Partly cloudy 25000 ft
2017/07/20 11:53 KHVN 201153Z 00000KT 10SM FEW140 SCT250 26/19 A2998 RMK AO2 SLP152 T02560194 10256 20200 53005
KHFD - Hartford/Brainar, Connecticut, USA
Distance from station: ENE 32mi, 52km
Updated: Thu, 20-Jul-2017 7:53am EDT
Clear
Clear
 Wind from calm
Wind: Calm
Temperature: 77°F , 25°C
Dew Point: 68°F , 20°C
Humidity: 74%
Barometer: 29.98 inHg , 1015.2 hPa
Clouds: Clear
Visibility: 10 miles , 16 km
2017/07/20 11:53 KHFD 201153Z 00000KT 10SM CLR 25/20 A2998 RMK AO2 SLP150 T02500200 10250 20211 53008 $
 
KPOU - Poughkeepsie, New York, USA
Distance from station: W 35mi, 56km
Updated: Thu, 20-Jul-2017 7:53am EDT
Clear
Clear
 Wind from calm
Wind: Calm
Temperature: 73°F , 23°C
Dew Point: 64°F , 18°C
Humidity: 74%
Barometer: 29.99 inHg , 1015.6 hPa
Clouds: Clear
Visibility: 10 miles , 16 km
2017/07/20 11:53 KPOU 201153Z AUTO 00000KT 10SM CLR 23/18 A2999 RMK AO2 SLP151 T02280183 10228 20183 53009
KBDL - Windsor Locks, Connecticut, USA
Distance from station: NE 38mi, 62km
Updated: Thu, 20-Jul-2017 7:51am EDT
Mostly cloudy
Mostly cloudy
 Wind from calm
Wind: Calm
Temperature: 75°F , 24°C
Dew Point: 66°F , 19°C
Humidity: 74%
Barometer: 29.99 inHg , 1015.6 hPa
Clouds: Mostly cloudy
Visibility: 10 miles , 16 km
Cloud details: Few Clouds 10000 ft
Mostly cloudy 20000 ft
2017/07/20 11:51 KBDL 201151Z 00000KT 10SM FEW100 BKN200 24/19 A2999 RMK AO2 SLP153 T02440194 10244 20211 53009
 
KSNC - Chester, Connecticut, USA
Distance from station: ESE 39mi, 63km
Updated: Thu, 20-Jul-2017 8:15am EDT
Clear
Clear
 Wind from calm
Wind: Calm
Temperature: 79°F , 26°C
Dew Point: 66°F , 19°C
Humidity: 65%
Barometer: 30.00 inHg , 1015.9 hPa
Clouds: Clear
Visibility: 10 miles , 16 km
2017/07/20 12:15 KSNC 201215Z AUTO 00000KT 10SM CLR 26/19 A3000 RMK AO2
KHPN - White Plains, New York, USA
Distance from station: SW 42mi, 67km
Updated: Thu, 20-Jul-2017 7:56am EDT
Clear
Clear
 Wind from WNW
Wind: WNW 3 mph , 6 km/h
Temperature: 79°F , 26°C
Dew Point: 64°F , 18°C
Humidity: 61%
Barometer: 29.99 inHg , 1015.6 hPa
Clouds: Clear
Visibility: 10 miles , 16 km
2017/07/20 11:56 KHPN 201156Z 29003KT 10SM SKC 26/18 A2999 RMK SLP149
 
KSWF - Newburgh/Stewart, New York, USA
Distance from station: W 45mi, 72km
Updated: Thu, 20-Jul-2017 7:45am EDT
Partly cloudy
Partly cloudy
 Wind from calm
Wind: Calm
Temperature: 73°F , 23°C
Dew Point: 70°F , 21°C
Humidity: 89%
Barometer: 30.02 inHg , 1016.6 hPa
Clouds: Partly cloudy
Visibility: 15 miles , 24 km
Cloud details: Partly cloudy 10000 ft
2017/07/20 11:45 KSWF 201145Z 00000KT 15SM SCT100 23/21 A3002
KBAF - Westfield, Massachusetts, USA
Distance from station: NNE 50mi, 80km
Updated: Thu, 20-Jul-2017 7:53am EDT
Mostly cloudy
Mostly cloudy
 Wind from calm
Wind: Calm
Temperature: 75°F , 24°C
Dew Point: 70°F , 21°C
Humidity: 83%
Barometer: 29.98 inHg , 1015.2 hPa
Clouds: Mostly cloudy
Visibility: 10 miles , 16 km
Cloud details: Mostly cloudy 10000 ft
2017/07/20 11:53 KBAF 201153Z 00000KT 10SM BKN100 24/21 A2998 RMK AO2 SLP149 T02390206 10239 20183 53005